Kapaa, HI

4:59 PM HST on March 04, 2015 (GMT -1000)
WAILUA HOMESTEADS | Change Station
CLOSE
Current Station
Personal Weather Station
Location: Kapaa, HI
Elevation: 361 ft
Nearby Weather Stations

Elev 361 ft 22.07 °N, 159.36 °W | Updated 43 seconds ago

Partly Cloudy
Partly Cloudy
69.1 °F
Feels Like 69.1 °F
N
4.0
Wind Variable Wind from NE
Gusts 10.0 mph

Today
High -- | Low -- °F
--% Chance of Precip.
Yesterday
High -- | Low -- °F
Precip. -- in
6:55 AM 6:42 PM
Full, 100% visible
Pressure 30.00 in
Visibility 10.0 miles
Clouds Few 2400 ft
Dew Point 63 °F
Humidity 81%
Rainfall 0.00 in
Snow Depth Not available.
UV 0.8 out of 12
Pollen Not available.
Air Quality Not available.
Flu Activity Not available.
METAR PHLI 050153Z 03017G23KT 10SM FEW024 24/16 A3000 RMK AO2 SLP158 T02440161

More Conditions Fewer Conditions

Pressure 30.00 in
Visibility 10.0 miles
Clouds Few 2400 ft
Dew Point 63 °F
Humidity 81%
Rainfall 0.00 in
Snow Depth Not available.
UV 0.8 out of 12
Pollen Not available.
Air Quality Not available.
Flu Activity Not available.
METAR PHLI 050153Z 03017G23KT 10SM FEW024 24/16 A3000 RMK AO2 SLP158 T02440161

More Conditions Fewer Conditions

10-Day Weather Forecast

Almanac

Astronomy

Mar. 04, 2015 Rise Set
Actual Time
Civil Twilight
Nautical Twilight
Astronomical Twilight
Moon
Length of Visible Light
Length of Day
Tomorrow will be .
, % of the Moon is Illuminated

Today's Extremes

State Highs State Lows

Community

WunderPhotos

Upload Photos

1,802,634 photos uploaded!

WunderBlogs® & News

Nearby

Air Quality

  Air Quality AQ Index Pollutant
Not available.

Snow Depth

Station Depth Elevation

Earthquake Activity

City Distance Mag. Time & Date
Minimum magnitude displayed is 2.5.

Coastal Water Temperatures

Place Temperature

Nearby Weather Stations